createdAt,value
2022-10-18T00:01:20.239Z,18.00
2022-10-18T00:03:50.954Z,17.90
2022-10-18T00:06:21.037Z,17.90
2022-10-18T00:08:49.764Z,17.90
2022-10-18T00:11:18.581Z,17.80
2022-10-18T00:13:47.626Z,17.80
2022-10-18T00:16:18.019Z,17.80
2022-10-18T00:18:47.915Z,17.80
2022-10-18T00:21:19.056Z,17.80
2022-10-18T00:23:50.713Z,17.70
2022-10-18T00:26:21.501Z,17.70
2022-10-18T00:28:53.707Z,17.70
2022-10-18T00:31:25.441Z,17.70
2022-10-18T00:33:55.943Z,17.70
2022-10-18T00:36:26.047Z,17.70
2022-10-18T00:38:56.839Z,17.70
2022-10-18T00:41:28.249Z,17.60
2022-10-18T00:44:00.140Z,17.60
2022-10-18T00:46:30.668Z,17.60
2022-10-18T00:49:02.434Z,17.50
2022-10-18T00:51:35.095Z,17.50
2022-10-18T00:54:05.774Z,17.50
2022-10-18T00:56:35.543Z,17.40
2022-10-18T00:59:04.930Z,17.40
2022-10-18T01:01:34.063Z,17.40
2022-10-18T01:04:03.442Z,17.30
2022-10-18T01:06:32.711Z,17.30
2022-10-18T01:09:14.217Z,17.30
2022-10-18T01:12:04.394Z,17.30
2022-10-18T01:14:40.987Z,17.30
2022-10-18T01:17:17.510Z,17.30
2022-10-18T01:20:14.115Z,17.30
2022-10-18T01:22:46.359Z,17.20
2022-10-18T01:25:28.074Z,17.20
2022-10-18T01:28:04.009Z,17.20
2022-10-18T01:30:55.814Z,17.20
2022-10-18T01:33:32.686Z,17.10
2022-10-18T01:36:06.871Z,17.10
2022-10-18T01:38:37.946Z,17.10
2022-10-18T01:41:13.110Z,17.10
2022-10-18T01:43:48.817Z,17.10
2022-10-18T01:46:24.612Z,17.00
2022-10-18T01:48:54.647Z,17.00
2022-10-18T01:51:26.200Z,17.00
2022-10-18T01:53:55.411Z,17.00
2022-10-18T01:56:31.504Z,16.90
2022-10-18T01:59:20.402Z,16.90
2022-10-18T02:02:01.702Z,16.90
2022-10-18T02:04:38.122Z,16.90
2022-10-18T02:07:14.116Z,16.90
2022-10-18T02:09:50.550Z,16.90
2022-10-18T02:12:22.309Z,16.90
2022-10-18T02:14:51.733Z,16.80
2022-10-18T02:17:24.520Z,16.80
2022-10-18T02:19:56.863Z,16.80
2022-10-18T02:22:29.225Z,16.80
2022-10-18T02:25:02.786Z,16.80
2022-10-18T02:27:31.819Z,16.80
2022-10-18T02:30:00.668Z,16.80
2022-10-18T02:32:34.916Z,16.80
2022-10-18T02:35:08.921Z,16.80
2022-10-18T02:37:39.865Z,16.80
2022-10-18T02:40:10.730Z,16.80
2022-10-18T02:42:44.983Z,16.80
2022-10-18T02:45:14.940Z,16.80
2022-10-18T02:47:45.155Z,16.80
2022-10-18T02:50:14.769Z,16.80
2022-10-18T02:52:43.460Z,16.80
2022-10-18T02:55:13.384Z,16.80
2022-10-18T02:57:42.086Z,16.80
2022-10-18T03:00:12.053Z,16.80
2022-10-18T03:02:40.842Z,16.80
2022-10-18T03:05:11.780Z,16.80
2022-10-18T03:07:40.692Z,16.80
2022-10-18T03:10:10.558Z,16.80
2022-10-18T03:12:39.499Z,16.80
2022-10-18T03:15:09.216Z,16.80
2022-10-18T03:17:38.238Z,16.80
2022-10-18T03:20:08.355Z,16.80
2022-10-18T03:22:38.522Z,16.80
2022-10-18T03:25:08.033Z,16.80
2022-10-18T03:27:36.794Z,16.80
2022-10-18T03:30:06.082Z,16.80
2022-10-18T03:32:35.254Z,16.80
2022-10-18T03:35:04.757Z,16.80
2022-10-18T03:37:33.800Z,16.80
2022-10-18T03:40:04.603Z,16.80
2022-10-18T03:42:33.785Z,16.70
2022-10-18T03:45:03.063Z,16.80
2022-10-18T03:47:32.202Z,16.80
2022-10-18T03:50:01.240Z,16.70
2022-10-18T03:52:30.639Z,16.70
2022-10-18T03:54:59.715Z,16.70
2022-10-18T03:57:29.895Z,16.70
2022-10-18T03:59:58.890Z,16.70
2022-10-18T04:02:28.192Z,16.70
2022-10-18T04:04:58.728Z,16.70
2022-10-18T04:07:28.198Z,16.70
2022-10-18T04:09:57.039Z,16.70
2022-10-18T04:12:25.949Z,16.70
2022-10-18T04:14:56.566Z,16.70
2022-10-18T04:17:25.682Z,16.70
2022-10-18T04:19:54.752Z,16.70
2022-10-18T04:22:23.859Z,16.70
2022-10-18T04:24:53.738Z,16.70
2022-10-18T04:27:22.650Z,16.60
2022-10-18T04:29:51.756Z,16.60
2022-10-18T04:32:22.207Z,16.60
2022-10-18T04:34:51.350Z,16.60
2022-10-18T04:37:20.225Z,16.60
2022-10-18T04:39:52.604Z,16.60
2022-10-18T04:42:22.983Z,16.60
2022-10-18T04:44:51.966Z,16.60
2022-10-18T04:47:22.213Z,16.70
2022-10-18T04:49:51.339Z,16.70
2022-10-18T04:52:20.458Z,16.70
2022-10-18T04:54:49.386Z,16.70
2022-10-18T04:57:18.460Z,16.70
2022-10-18T04:59:47.593Z,16.70
2022-10-18T05:02:16.412Z,16.70
2022-10-18T05:04:46.938Z,16.80
2022-10-18T05:07:16.096Z,16.80
2022-10-18T05:09:45.412Z,16.80
2022-10-18T05:12:14.460Z,16.80
2022-10-18T05:14:43.478Z,16.80
2022-10-18T05:17:12.576Z,16.80
2022-10-18T05:19:41.458Z,16.80
2022-10-18T05:22:11.919Z,16.90
2022-10-18T05:24:40.862Z,16.90
2022-10-18T05:27:10.192Z,16.90
2022-10-18T05:29:38.880Z,16.90
2022-10-18T05:32:07.742Z,16.90
2022-10-18T05:34:36.878Z,17.00
2022-10-18T05:37:06.735Z,17.00
2022-10-18T05:39:38.218Z,17.00
2022-10-18T05:42:08.131Z,17.00
2022-10-18T05:44:36.798Z,17.00
2022-10-18T05:47:05.948Z,17.00
2022-10-18T05:49:36.016Z,17.00
2022-10-18T05:52:05.214Z,17.00
2022-10-18T05:54:34.386Z,17.10
2022-10-18T05:57:04.979Z,17.10
2022-10-18T05:59:34.014Z,17.10
2022-10-18T06:02:03.390Z,17.10
2022-10-18T06:04:32.463Z,17.20
2022-10-18T06:07:01.403Z,17.20
2022-10-18T06:09:30.631Z,17.20
2022-10-18T06:11:59.599Z,17.20
2022-10-18T06:14:29.885Z,17.20
2022-10-18T06:16:58.786Z,17.20
2022-10-18T06:19:27.983Z,17.20
2022-10-18T06:21:57.083Z,17.30
2022-10-18T06:24:26.660Z,17.30
2022-10-18T06:26:55.738Z,17.30
2022-10-18T06:29:25.242Z,17.30
2022-10-18T06:31:55.600Z,17.30
2022-10-18T06:34:24.467Z,17.30
2022-10-18T06:36:56.561Z,17.30
2022-10-18T06:39:28.081Z,17.30
2022-10-18T06:41:57.456Z,17.30
2022-10-18T06:44:26.706Z,17.30
2022-10-18T06:46:56.976Z,17.30
2022-10-18T06:49:26.210Z,17.20
2022-10-18T06:51:55.834Z,17.20
2022-10-18T06:54:24.804Z,17.20
2022-10-18T06:56:57.528Z,17.20
2022-10-18T06:59:28.972Z,17.20
2022-10-18T07:02:01.586Z,17.20
2022-10-18T07:04:31.066Z,17.20
2022-10-18T07:07:00.089Z,17.10
2022-10-18T07:09:29.342Z,17.20
2022-10-18T07:11:58.386Z,17.20
2022-10-18T07:14:29.179Z,17.20
2022-10-18T07:17:01.373Z,17.20
2022-10-18T07:19:30.194Z,17.20
2022-10-18T07:21:59.133Z,17.20
2022-10-18T07:24:28.059Z,17.20
2022-10-18T07:26:57.199Z,17.20
2022-10-18T07:29:26.339Z,17.30
2022-10-18T07:31:55.648Z,17.30
2022-10-18T07:34:26.130Z,17.30
2022-10-18T07:36:55.134Z,17.40
2022-10-18T07:39:24.312Z,17.50
2022-10-18T07:41:53.335Z,17.60
2022-10-18T07:44:22.523Z,17.70
2022-10-18T07:46:51.646Z,17.80
2022-10-18T07:49:20.707Z,17.80
2022-10-18T07:51:51.635Z,17.90
2022-10-18T07:54:20.655Z,18.00
2022-10-18T07:56:49.661Z,18.00
2022-10-18T07:59:18.663Z,18.10
2022-10-18T08:01:47.706Z,18.20
2022-10-18T08:04:16.798Z,18.30
2022-10-18T08:06:45.843Z,18.40
2022-10-18T08:09:16.126Z,18.70
2022-10-18T08:11:45.839Z,18.90
2022-10-18T08:14:15.246Z,19.20
2022-10-18T08:16:44.275Z,19.50
2022-10-18T08:19:13.306Z,19.80
2022-10-18T08:21:42.280Z,20.10
2022-10-18T08:24:11.160Z,20.40
2022-10-18T08:26:41.354Z,20.50
2022-10-18T08:29:21.870Z,20.70
2022-10-18T08:31:53.042Z,20.70
2022-10-18T08:34:21.863Z,20.70
2022-10-18T08:36:50.933Z,20.70
2022-10-18T08:39:20.141Z,20.70
2022-10-18T08:42:13.100Z,20.60
2022-10-18T08:44:46.453Z,20.60
2022-10-18T08:47:18.657Z,20.50
2022-10-18T08:49:51.440Z,20.40
2022-10-18T08:52:31.308Z,20.30
2022-10-18T08:55:04.331Z,20.30
2022-10-18T08:57:34.980Z,20.30
2022-10-18T09:00:06.994Z,20.20
2022-10-18T09:02:50.811Z,20.20
2022-10-18T09:05:28.964Z,20.20
2022-10-18T09:08:23.596Z,20.30
2022-10-18T09:11:05.870Z,20.30
2022-10-18T09:13:57.514Z,20.30
2022-10-18T09:16:33.481Z,20.40
2022-10-18T09:19:12.324Z,20.60
2022-10-18T09:21:50.686Z,20.70
2022-10-18T09:24:26.906Z,20.80
2022-10-18T09:27:02.341Z,20.80
2022-10-18T09:29:46.606Z,20.90
2022-10-18T09:32:28.083Z,20.90
2022-10-18T09:34:59.171Z,21.00
2022-10-18T09:37:31.509Z,21.10
2022-10-18T09:40:07.600Z,21.20
2022-10-18T09:42:40.546Z,21.40
2022-10-18T09:45:23.478Z,21.50
2022-10-18T09:48:04.046Z,21.70
2022-10-18T09:50:38.254Z,21.90
2022-10-18T09:53:13.942Z,22.10
2022-10-18T09:55:56.343Z,22.40
2022-10-18T09:58:27.750Z,22.80
2022-10-18T10:00:58.296Z,23.00
2022-10-18T10:03:27.585Z,23.20
2022-10-18T10:06:15.897Z,23.30
2022-10-18T10:08:48.823Z,23.40
2022-10-18T10:11:29.239Z,23.40
2022-10-18T10:13:59.709Z,23.40
2022-10-18T10:16:29.931Z,23.30
2022-10-18T10:18:58.954Z,23.30
2022-10-18T10:21:28.026Z,23.30
2022-10-18T10:24:00.038Z,23.20
2022-10-18T10:26:33.090Z,23.20
2022-10-18T10:29:02.843Z,23.20
2022-10-18T10:31:34.324Z,23.20
2022-10-18T10:34:06.383Z,23.20
2022-10-18T10:36:35.378Z,23.20
2022-10-18T10:39:06.777Z,23.10
2022-10-18T10:41:36.127Z,23.10
2022-10-18T10:44:14.945Z,23.00
2022-10-18T10:46:45.477Z,23.00
2022-10-18T10:49:39.100Z,23.00
2022-10-18T10:52:26.708Z,22.90
2022-10-18T10:55:06.085Z,22.90
2022-10-18T10:57:40.245Z,22.80
2022-10-18T11:00:39.148Z,22.90
2022-10-18T11:03:27.732Z,22.80
2022-10-18T11:06:00.442Z,22.80
2022-10-18T11:08:33.978Z,22.80
2022-10-18T11:11:15.311Z,22.80
2022-10-18T11:14:01.582Z,22.70
2022-10-18T11:16:55.417Z,22.60
2022-10-18T11:19:35.263Z,22.60
2022-10-18T11:22:07.583Z,22.60
2022-10-18T11:24:37.431Z,22.50
2022-10-18T11:27:15.580Z,22.40
2022-10-18T11:30:03.952Z,22.30
2022-10-18T11:32:42.954Z,22.30
2022-10-18T11:35:27.056Z,22.20
2022-10-18T11:38:11.139Z,22.10
2022-10-18T11:40:55.735Z,22.00
2022-10-18T11:43:38.893Z,21.90
2022-10-18T11:46:27.862Z,21.80
2022-10-18T11:49:22.844Z,21.70
2022-10-18T11:52:08.434Z,21.60
2022-10-18T11:54:53.316Z,21.50
2022-10-18T11:57:40.865Z,21.40
2022-10-18T12:03:23.610Z,21.30
2022-10-18T12:05:57.011Z,21.30
2022-10-18T12:08:30.411Z,21.20
2022-10-18T12:11:06.226Z,21.20
2022-10-18T12:13:40.243Z,21.10
2022-10-18T12:16:10.999Z,21.10
2022-10-18T12:18:49.601Z,21.00
2022-10-18T12:21:25.499Z,21.00
2022-10-18T12:23:58.667Z,21.00
2022-10-18T12:26:29.689Z,20.90
2022-10-18T12:29:06.259Z,20.90
2022-10-18T12:31:41.230Z,20.90
2022-10-18T12:34:29.383Z,20.80
2022-10-18T12:37:22.416Z,20.90
2022-10-18T12:40:09.733Z,20.80
2022-10-18T12:42:43.652Z,20.80
2022-10-18T12:45:29.005Z,20.80
2022-10-18T12:48:02.099Z,20.80
2022-10-18T12:50:35.063Z,20.80
2022-10-18T12:53:16.650Z,20.80
2022-10-18T12:55:47.752Z,20.80
2022-10-18T12:58:37.803Z,20.80
2022-10-18T13:01:08.198Z,20.80
2022-10-18T13:03:59.611Z,20.80
2022-10-18T13:07:08.010Z,20.80
2022-10-18T13:09:39.823Z,20.80
2022-10-18T13:12:43.051Z,20.80
2022-10-18T13:15:35.982Z,20.80
2022-10-18T13:18:15.620Z,20.90
2022-10-18T13:21:21.090Z,20.90
2022-10-18T13:24:07.434Z,20.80
2022-10-18T13:26:54.146Z,20.90
2022-10-18T13:29:56.342Z,20.90
2022-10-18T13:32:31.920Z,20.90
2022-10-18T13:35:01.376Z,20.90
2022-10-18T13:37:31.122Z,20.90
2022-10-18T13:40:15.824Z,20.90
2022-10-18T13:42:46.019Z,21.00
2022-10-18T13:45:46.394Z,21.00
2022-10-18T13:48:50.503Z,21.10
2022-10-18T13:51:50.640Z,21.20
2022-10-18T13:54:48.270Z,21.20
2022-10-18T13:57:29.602Z,21.30
2022-10-18T14:00:27.404Z,21.30
2022-10-18T14:03:51.931Z,21.30
2022-10-18T14:06:19.082Z,21.30
2022-10-18T14:08:55.043Z,21.30
2022-10-18T14:11:33.414Z,21.30
2022-10-18T14:14:13.638Z,21.30
2022-10-18T14:16:48.821Z,21.30
2022-10-18T14:19:24.214Z,21.30
2022-10-18T14:21:57.793Z,21.30
2022-10-18T14:24:28.467Z,21.30
2022-10-18T14:27:12.712Z,21.30
2022-10-18T14:29:41.803Z,21.30
2022-10-18T14:32:22.501Z,21.30
2022-10-18T14:34:51.793Z,21.30
2022-10-18T14:37:28.154Z,21.20
2022-10-18T14:39:57.314Z,21.20
2022-10-18T14:42:28.898Z,21.20
2022-10-18T14:44:58.936Z,21.10
2022-10-18T14:47:31.279Z,21.10
2022-10-18T14:50:00.862Z,21.10
2022-10-18T14:52:35.487Z,21.10
2022-10-18T14:55:05.325Z,21.00
2022-10-18T14:57:36.655Z,21.00
2022-10-18T15:00:09.128Z,21.00
2022-10-18T15:02:40.975Z,21.00
2022-10-18T15:05:19.611Z,21.00
2022-10-18T15:07:50.250Z,21.00
2022-10-18T15:10:22.854Z,21.00
2022-10-18T15:13:08.685Z,21.00
2022-10-18T15:15:38.954Z,20.90
2022-10-18T15:18:21.796Z,20.90
2022-10-18T15:21:10.515Z,20.90
2022-10-18T15:23:39.585Z,20.90
2022-10-18T15:26:13.008Z,20.90
2022-10-18T15:28:49.820Z,20.90
2022-10-18T15:31:28.050Z,20.90
2022-10-18T15:34:10.859Z,20.90
2022-10-18T15:36:40.159Z,20.90
2022-10-18T15:39:15.220Z,20.90
2022-10-18T15:41:48.864Z,20.90
2022-10-18T15:44:25.315Z,20.90
2022-10-18T15:46:56.646Z,20.90
2022-10-18T15:49:52.171Z,20.80
2022-10-18T15:52:39.768Z,20.80
2022-10-18T15:55:46.103Z,20.80
2022-10-18T15:58:20.658Z,20.80
2022-10-18T16:00:50.992Z,20.80
2022-10-18T16:03:22.158Z,20.70
2022-10-18T16:05:56.938Z,20.70
2022-10-18T16:08:28.814Z,20.70
2022-10-18T16:10:58.844Z,20.60
2022-10-18T16:13:28.380Z,20.60
2022-10-18T16:15:57.363Z,20.50
2022-10-18T16:18:27.132Z,20.60
2022-10-18T16:20:57.522Z,20.50
2022-10-18T16:23:28.665Z,20.40
2022-10-18T16:25:58.162Z,20.40
2022-10-18T16:28:28.010Z,20.40
2022-10-18T16:30:58.948Z,20.40
2022-10-18T16:33:28.586Z,20.30
2022-10-18T16:35:59.490Z,20.30
2022-10-18T16:38:34.152Z,20.30
2022-10-18T16:41:05.548Z,20.20
2022-10-18T16:43:35.351Z,20.30
2022-10-18T16:46:05.319Z,20.20
2022-10-18T16:48:34.618Z,20.20
2022-10-18T16:51:05.035Z,20.20
2022-10-18T16:53:33.827Z,20.10
2022-10-18T16:56:04.989Z,20.20
2022-10-18T16:58:34.728Z,20.10
2022-10-18T17:01:06.701Z,20.10
2022-10-18T17:03:37.931Z,20.10
2022-10-18T17:06:14.506Z,20.10
2022-10-18T17:08:43.523Z,20.00
2022-10-18T17:11:14.536Z,19.90
2022-10-18T17:13:43.623Z,19.80
2022-10-18T17:16:22.406Z,19.80
2022-10-18T17:18:51.652Z,19.80
2022-10-18T17:21:22.351Z,19.70
2022-10-18T17:23:51.511Z,19.60
2022-10-18T17:26:30.541Z,19.60
2022-10-18T17:29:01.530Z,19.50
2022-10-18T17:31:32.240Z,19.50
2022-10-18T17:34:01.881Z,19.40
2022-10-18T17:36:33.600Z,19.40
2022-10-18T17:39:03.010Z,19.30
2022-10-18T17:41:31.864Z,19.30
2022-10-18T17:44:02.783Z,19.30
2022-10-18T17:46:31.732Z,19.30
2022-10-18T17:49:00.705Z,19.30
2022-10-18T17:51:29.443Z,19.20
2022-10-18T17:53:59.772Z,19.20
2022-10-18T17:56:33.274Z,19.20
2022-10-18T17:59:02.784Z,19.10
2022-10-18T18:01:31.953Z,19.10
2022-10-18T18:04:02.583Z,19.10
2022-10-18T18:06:33.993Z,19.10
2022-10-18T18:09:07.955Z,19.10
2022-10-18T18:11:38.597Z,19.00
2022-10-18T18:14:09.055Z,19.00
2022-10-18T18:16:39.099Z,19.00
2022-10-18T18:19:10.000Z,18.90
2022-10-18T18:21:40.149Z,18.90
2022-10-18T18:24:11.123Z,18.90
2022-10-18T18:26:41.062Z,18.90
2022-10-18T18:29:13.171Z,18.90
2022-10-18T18:31:44.541Z,18.80
2022-10-18T18:34:13.479Z,18.80
2022-10-18T18:36:42.803Z,18.80
2022-10-18T18:39:22.347Z,18.80
2022-10-18T18:41:52.808Z,18.70
2022-10-18T18:44:22.498Z,18.70
2022-10-18T18:46:51.525Z,18.70
2022-10-18T18:49:21.686Z,18.60
2022-10-18T18:51:50.567Z,18.60
2022-10-18T18:54:22.016Z,18.60
2022-10-18T18:56:51.148Z,18.50
2022-10-18T18:59:20.339Z,18.50
2022-10-18T19:01:49.286Z,18.50
2022-10-18T19:04:18.394Z,18.40
2022-10-18T19:06:47.297Z,18.40
2022-10-18T19:09:20.639Z,18.40
2022-10-18T19:11:52.796Z,18.40
2022-10-18T19:14:23.921Z,18.30
2022-10-18T19:16:54.258Z,18.30
2022-10-18T19:19:24.696Z,18.30
2022-10-18T19:21:55.047Z,18.30
2022-10-18T19:24:25.616Z,18.20
2022-10-18T19:26:57.425Z,18.20
2022-10-18T19:29:27.825Z,18.20
2022-10-18T19:31:59.266Z,18.10
2022-10-18T19:34:30.071Z,18.10
2022-10-18T19:36:59.167Z,18.10
2022-10-18T19:39:29.611Z,18.00
2022-10-18T19:42:03.043Z,18.00
2022-10-18T19:44:33.802Z,18.00
2022-10-18T19:47:03.021Z,18.00
2022-10-18T19:49:32.030Z,17.90
2022-10-18T19:52:00.802Z,17.90
2022-10-18T19:54:29.605Z,17.90
2022-10-18T19:56:59.580Z,17.90
2022-10-18T19:59:28.495Z,17.90
2022-10-18T20:01:57.198Z,17.90
2022-10-18T20:04:25.817Z,17.90
2022-10-18T20:06:54.678Z,17.90
2022-10-18T20:09:23.719Z,17.80
2022-10-18T20:11:52.410Z,17.80
2022-10-18T20:14:22.656Z,17.80
2022-10-18T20:16:51.351Z,17.70
2022-10-18T20:19:20.020Z,17.70
2022-10-18T20:21:48.874Z,17.70
2022-10-18T20:24:18.053Z,17.70
2022-10-18T20:26:46.759Z,17.60
2022-10-18T20:29:15.887Z,17.60
2022-10-18T20:31:47.463Z,17.60
2022-10-18T20:34:16.330Z,17.50
2022-10-18T20:36:45.187Z,17.50
2022-10-18T20:39:13.997Z,17.40
2022-10-18T20:41:42.695Z,17.40
2022-10-18T20:44:14.642Z,17.40
2022-10-18T20:46:44.543Z,17.40
2022-10-18T20:49:16.618Z,17.30
2022-10-18T20:51:46.070Z,17.30
2022-10-18T20:54:15.003Z,17.30
2022-10-18T20:56:43.795Z,17.30
2022-10-18T20:59:41.027Z,17.30
2022-10-18T21:02:11.731Z,17.30
2022-10-18T21:04:42.459Z,17.20
2022-10-18T21:07:11.290Z,17.20
2022-10-18T21:09:40.511Z,17.20
2022-10-18T21:14:37.964Z,17.10
2022-10-18T21:17:06.673Z,17.10
2022-10-18T21:19:35.647Z,17.10
2022-10-18T21:22:05.698Z,17.00
2022-10-18T21:24:34.675Z,17.10
2022-10-18T21:27:03.355Z,17.10
2022-10-18T21:29:32.017Z,17.10
2022-10-18T21:32:00.865Z,17.00
2022-10-18T21:34:29.932Z,17.00
2022-10-18T21:36:58.707Z,17.00
2022-10-18T21:39:29.913Z,17.00
2022-10-18T21:41:58.684Z,17.00
2022-10-18T21:44:27.678Z,17.00
2022-10-18T21:46:56.886Z,17.00
2022-10-18T21:49:27.999Z,17.10
2022-10-18T21:51:56.715Z,17.00
2022-10-18T21:54:25.693Z,17.10
2022-10-18T21:56:55.854Z,17.10
2022-10-18T21:59:24.749Z,17.10
2022-10-18T22:01:53.957Z,17.10
2022-10-18T22:04:24.302Z,17.10
2022-10-18T22:06:53.443Z,17.10
2022-10-18T22:09:22.526Z,17.10
2022-10-18T22:11:53.625Z,17.00
2022-10-18T22:14:24.663Z,17.00
2022-10-18T22:16:53.862Z,17.00
2022-10-18T22:19:22.672Z,17.00
2022-10-18T22:21:51.817Z,17.00
2022-10-18T22:24:21.025Z,17.00
2022-10-18T22:26:49.988Z,17.00
2022-10-18T22:29:20.187Z,17.10
2022-10-18T22:31:52.390Z,17.10
2022-10-18T22:34:23.828Z,17.10
2022-10-18T22:36:52.532Z,17.10
2022-10-18T22:39:21.826Z,17.20
2022-10-18T22:41:55.688Z,17.20
2022-10-18T22:44:25.200Z,17.20
2022-10-18T22:46:55.263Z,17.20
2022-10-18T22:49:24.386Z,17.20
2022-10-18T22:51:53.142Z,17.20
2022-10-18T22:54:22.010Z,17.20
2022-10-18T22:56:50.727Z,17.20
2022-10-18T22:59:19.526Z,17.20
2022-10-18T23:01:48.211Z,17.20
2022-10-18T23:04:18.319Z,17.20
2022-10-18T23:06:47.500Z,17.20
2022-10-18T23:09:16.194Z,17.20
2022-10-18T23:11:44.889Z,17.30
2022-10-18T23:14:13.594Z,17.30
2022-10-18T23:16:42.262Z,17.30
2022-10-18T23:19:15.872Z,17.30
2022-10-18T23:21:46.041Z,17.30
2022-10-18T23:24:14.770Z,17.30
2022-10-18T23:26:43.458Z,17.30
2022-10-18T23:29:12.260Z,17.30
2022-10-18T23:31:40.995Z,17.30
2022-10-18T23:34:10.686Z,17.30
2022-10-18T23:36:39.466Z,17.30
2022-10-18T23:39:09.623Z,17.30
2022-10-18T23:41:38.319Z,17.30
2022-10-18T23:44:08.919Z,17.30
2022-10-18T23:46:37.819Z,17.30
2022-10-18T23:49:06.555Z,17.30
2022-10-18T23:51:35.226Z,17.30
2022-10-18T23:54:04.554Z,17.30
2022-10-18T23:56:35.264Z,17.30
2022-10-18T23:59:04.433Z,17.20
